DCM143 KTRK-KVNY
Flight info
| Callsign | DCM143 |
|---|---|
| Flight time | 0h 58m |
| Altitude | 39000 |
| Route | MOWGL2 SWR REBRG IVINS2 |
| Aircraft | A319/L-VGDW/C |
Departure
| Time | 2026-05-04 19:23 |
|---|---|
| Airport | Truckee Tahoe Airport (KTRK) |
Arrival
| Time | 2026-05-04 20:21 |
|---|---|
| Airport | Van Nuys Airport (KVNY) |
| Time | Latitude | Longitude | Altitude | Speed | Heading |
|---|---|---|---|---|---|
| 2026-05-04 19:05 | 39.31899 | -120.14333 | 5902 ft | 0 kts | 211° |
| 2026-05-04 19:18 | 39.31898 | -120.14334 | 5902 ft | 0 kts | 210° |
| 2026-05-04 19:18 | 39.31884 | -120.14320 | 5901 ft | 12 kts | 110° |
| 2026-05-04 19:19 | 39.31849 | -120.14207 | 5901 ft | 3 kts | 112° |
| 2026-05-04 19:19 | 39.31839 | -120.14175 | 5900 ft | 10 kts | 112° |
| 2026-05-04 19:19 | 39.31824 | -120.14065 | 5900 ft | 13 kts | 51° |
| 2026-05-04 19:19 | 39.31818 | -120.13963 | 5900 ft | 13 kts | 114° |
| 2026-05-04 19:20 | 39.31769 | -120.13859 | 5900 ft | 14 kts | 121° |
| 2026-05-04 19:20 | 39.31712 | -120.13736 | 5900 ft | 17 kts | 119° |
| 2026-05-04 19:20 | 39.31651 | -120.13595 | 5899 ft | 18 kts | 119° |
| 2026-05-04 19:20 | 39.31584 | -120.13442 | 5897 ft | 19 kts | 120° |
| 2026-05-04 19:21 | 39.31514 | -120.13285 | 5896 ft | 20 kts | 120° |
| 2026-05-04 19:21 | 39.31480 | -120.13171 | 5894 ft | 5 kts | 39° |
| 2026-05-04 19:21 | 39.31490 | -120.13165 | 5894 ft | 2 kts | 27° |
| 2026-05-04 19:21 | 39.31527 | -120.13159 | 5893 ft | 7 kts | 337° |
| 2026-05-04 19:22 | 39.31547 | -120.13187 | 5893 ft | 0 kts | 303° |
| 2026-05-04 19:22 | 39.31548 | -120.13187 | 5893 ft | 1 kts | 302° |
| 2026-05-04 19:22 | 39.31702 | -120.13526 | 5898 ft | 92 kts | 300° |
| 2026-05-04 19:22 | 39.32161 | -120.14547 | 6040 ft | 159 kts | 300° |
| 2026-05-04 19:23 | 39.32737 | -120.15773 | 6911 ft | 167 kts | 303° |
| 2026-05-04 19:23 | 39.33411 | -120.17019 | 7795 ft | 180 kts | 319° |
| 2026-05-04 19:23 | 39.34551 | -120.17721 | 8639 ft | 193 kts | 351° |
| 2026-05-04 19:23 | 39.35888 | -120.17976 | 9639 ft | 201 kts | 355° |
| 2026-05-04 19:24 | 39.37237 | -120.18223 | 10746 ft | 203 kts | 355° |
| 2026-05-04 19:24 | 39.38617 | -120.18535 | 11786 ft | 208 kts | 354° |
| 2026-05-04 19:24 | 39.40049 | -120.18906 | 12640 ft | 220 kts | 353° |
| 2026-05-04 19:24 | 39.41595 | -120.19337 | 13356 ft | 238 kts | 353° |
| 2026-05-04 19:25 | 39.43284 | -120.19840 | 13961 ft | 263 kts | 348° |
| 2026-05-04 19:25 | 39.44955 | -120.21057 | 14615 ft | 297 kts | 318° |
| 2026-05-04 19:25 | 39.46072 | -120.23389 | 15505 ft | 318 kts | 298° |
| 2026-05-04 19:25 | 39.46974 | -120.26077 | 16272 ft | 335 kts | 294° |
| 2026-05-04 19:26 | 39.47355 | -120.29058 | 17144 ft | 352 kts | 267° |
| 2026-05-04 19:26 | 39.46672 | -120.32127 | 17901 ft | 367 kts | 241° |
| 2026-05-04 19:26 | 39.45260 | -120.34924 | 18727 ft | 375 kts | 232° |
| 2026-05-04 19:26 | 39.43509 | -120.37372 | 19853 ft | 371 kts | 214° |
| 2026-05-04 19:27 | 39.41233 | -120.38766 | 20609 ft | 369 kts | 188° |
| 2026-05-04 19:27 | 39.38674 | -120.38939 | 21271 ft | 372 kts | 172° |
| 2026-05-04 19:27 | 39.36081 | -120.38729 | 22046 ft | 378 kts | 171° |
| 2026-05-04 19:27 | 39.33469 | -120.38502 | 22960 ft | 377 kts | 167° |
| 2026-05-04 19:28 | 39.30924 | -120.37744 | 23760 ft | 372 kts | 154° |
| 2026-05-04 19:28 | 39.28624 | -120.36298 | 24501 ft | 369 kts | 142° |
| 2026-05-04 19:28 | 39.26496 | -120.34456 | 25224 ft | 371 kts | 140° |
| 2026-05-04 19:28 | 39.24362 | -120.32533 | 25655 ft | 383 kts | 139° |
| 2026-05-04 19:29 | 39.22125 | -120.30534 | 25926 ft | 398 kts | 140° |
| 2026-05-04 19:29 | 39.19763 | -120.28607 | 26175 ft | 416 kts | 146° |
| 2026-05-04 19:29 | 39.17040 | -120.27058 | 26552 ft | 432 kts | 155° |
| 2026-05-04 19:29 | 39.14130 | -120.26064 | 27088 ft | 443 kts | 164° |
| 2026-05-04 19:30 | 39.11044 | -120.25369 | 27565 ft | 450 kts | 165° |
| 2026-05-04 19:30 | 39.07907 | -120.24711 | 27750 ft | 462 kts | 166° |
| 2026-05-04 19:30 | 39.04731 | -120.24054 | 28015 ft | 471 kts | 166° |
| 2026-05-04 19:30 | 39.01503 | -120.23390 | 28812 ft | 467 kts | 165° |
| 2026-05-04 19:31 | 38.98327 | -120.22735 | 29690 ft | 460 kts | 165° |
| 2026-05-04 19:31 | 38.95174 | -120.22073 | 30282 ft | 461 kts | 165° |
| 2026-05-04 19:31 | 38.92034 | -120.21408 | 30785 ft | 462 kts | 166° |
| 2026-05-04 19:31 | 38.88887 | -120.20739 | 31492 ft | 454 kts | 167° |
| 2026-05-04 19:32 | 38.85823 | -120.20084 | 32276 ft | 445 kts | 167° |
| 2026-05-04 19:32 | 38.82795 | -120.19436 | 32889 ft | 439 kts | 168° |
| 2026-05-04 19:32 | 38.79789 | -120.18797 | 33351 ft | 439 kts | 169° |
| 2026-05-04 19:32 | 38.76785 | -120.18162 | 33755 ft | 440 kts | 169° |
| 2026-05-04 19:33 | 38.73766 | -120.17527 | 34282 ft | 437 kts | 170° |
| 2026-05-04 19:33 | 38.70779 | -120.16898 | 34849 ft | 432 kts | 171° |
| 2026-05-04 19:33 | 38.67844 | -120.16279 | 35266 ft | 432 kts | 171° |
| 2026-05-04 19:33 | 38.64872 | -120.15653 | 35684 ft | 434 kts | 171° |
| 2026-05-04 19:34 | 38.61867 | -120.15023 | 36054 ft | 437 kts | 172° |
| 2026-05-04 19:34 | 38.58876 | -120.14396 | 36388 ft | 439 kts | 172° |
| 2026-05-04 19:34 | 38.55876 | -120.13766 | 36769 ft | 441 kts | 172° |
| 2026-05-04 19:34 | 38.52828 | -120.13126 | 37084 ft | 442 kts | 172° |
| 2026-05-04 19:35 | 38.49807 | -120.12492 | 37383 ft | 443 kts | 173° |
| 2026-05-04 19:35 | 38.46754 | -120.11852 | 37638 ft | 445 kts | 173° |
| 2026-05-04 19:35 | 38.43687 | -120.11211 | 37911 ft | 446 kts | 173° |
| 2026-05-04 19:35 | 38.40661 | -120.10574 | 38401 ft | 441 kts | 174° |
| 2026-05-04 19:36 | 38.37659 | -120.09947 | 38890 ft | 438 kts | 174° |
| 2026-05-04 19:36 | 38.31550 | -120.08679 | 38981 ft | 450 kts | 174° |
| 2026-05-04 19:37 | 38.25375 | -120.07399 | 38974 ft | 448 kts | 174° |
| 2026-05-04 19:37 | 38.19279 | -120.06133 | 38984 ft | 436 kts | 174° |
| 2026-05-04 19:38 | 38.13298 | -120.04879 | 38976 ft | 435 kts | 175° |
| 2026-05-04 19:38 | 38.07356 | -120.03644 | 38967 ft | 433 kts | 175° |
| 2026-05-04 19:39 | 38.01406 | -120.02415 | 38977 ft | 436 kts | 175° |
| 2026-05-04 19:39 | 37.95424 | -120.01178 | 38998 ft | 438 kts | 175° |
| 2026-05-04 19:40 | 37.89374 | -119.99929 | 39004 ft | 438 kts | 175° |
| 2026-05-04 19:40 | 37.83351 | -119.98686 | 39014 ft | 438 kts | 175° |
| 2026-05-04 19:41 | 37.77393 | -119.97459 | 39013 ft | 436 kts | 175° |
| 2026-05-04 19:41 | 37.71408 | -119.96228 | 39012 ft | 436 kts | 175° |
| 2026-05-04 19:42 | 37.65404 | -119.94997 | 39022 ft | 435 kts | 176° |
| 2026-05-04 19:42 | 37.59439 | -119.93779 | 39010 ft | 434 kts | 175° |
| 2026-05-04 19:43 | 37.53499 | -119.92564 | 39020 ft | 434 kts | 175° |
| 2026-05-04 19:43 | 37.47551 | -119.91349 | 39014 ft | 433 kts | 176° |
| 2026-05-04 19:44 | 37.41591 | -119.90134 | 39015 ft | 432 kts | 176° |
| 2026-05-04 19:44 | 37.35647 | -119.88924 | 39020 ft | 432 kts | 176° |
| 2026-05-04 19:45 | 37.29714 | -119.87720 | 39025 ft | 432 kts | 176° |
| 2026-05-04 19:45 | 37.23816 | -119.86522 | 39021 ft | 430 kts | 176° |
| 2026-05-04 19:46 | 37.17897 | -119.85324 | 39021 ft | 431 kts | 176° |
| 2026-05-04 19:46 | 37.11987 | -119.84128 | 39022 ft | 429 kts | 176° |
| 2026-05-04 19:47 | 37.06094 | -119.82940 | 39020 ft | 430 kts | 176° |
| 2026-05-04 19:47 | 37.00182 | -119.81749 | 39019 ft | 429 kts | 176° |
| 2026-05-04 19:48 | 36.94302 | -119.80564 | 39043 ft | 429 kts | 176° |
| 2026-05-04 19:48 | 36.88395 | -119.79379 | 39050 ft | 429 kts | 177° |
| 2026-05-04 19:49 | 36.82548 | -119.78206 | 39036 ft | 428 kts | 176° |
| 2026-05-04 19:49 | 36.76656 | -119.77026 | 39051 ft | 428 kts | 176° |
| 2026-05-04 19:50 | 36.70779 | -119.75850 | 39063 ft | 428 kts | 177° |
| 2026-05-04 19:50 | 36.64903 | -119.74677 | 39049 ft | 428 kts | 177° |
| 2026-05-04 19:51 | 36.59003 | -119.73500 | 39047 ft | 428 kts | 176° |
| 2026-05-04 19:51 | 36.53157 | -119.72337 | 39040 ft | 428 kts | 177° |
| 2026-05-04 19:52 | 36.47266 | -119.71166 | 39041 ft | 427 kts | 177° |
| 2026-05-04 19:52 | 36.41415 | -119.70003 | 39046 ft | 427 kts | 176° |
| 2026-05-04 19:53 | 36.35553 | -119.68842 | 39052 ft | 427 kts | 177° |
| 2026-05-04 19:53 | 36.29694 | -119.67683 | 39049 ft | 427 kts | 177° |
| 2026-05-04 19:54 | 36.23800 | -119.66519 | 39038 ft | 427 kts | 177° |
| 2026-05-04 19:54 | 36.17965 | -119.65366 | 39044 ft | 426 kts | 177° |
| 2026-05-04 19:55 | 36.12116 | -119.64213 | 39043 ft | 426 kts | 177° |
| 2026-05-04 19:55 | 36.06245 | -119.63087 | 39034 ft | 425 kts | 179° |
| 2026-05-04 19:56 | 36.00429 | -119.62496 | 39022 ft | 420 kts | 184° |
| 2026-05-04 19:56 | 35.94629 | -119.62595 | 39017 ft | 416 kts | 189° |
| 2026-05-04 19:57 | 35.88884 | -119.63378 | 39022 ft | 412 kts | 194° |
| 2026-05-04 19:57 | 35.83215 | -119.64522 | 39016 ft | 411 kts | 194° |
| 2026-05-04 19:58 | 35.77596 | -119.65646 | 39030 ft | 410 kts | 194° |
| 2026-05-04 19:58 | 35.71995 | -119.66759 | 39011 ft | 410 kts | 193° |
| 2026-05-04 19:59 | 35.66342 | -119.67353 | 38575 ft | 402 kts | 188° |
| 2026-05-04 19:59 | 35.63541 | -119.67380 | 37851 ft | 405 kts | 186° |
| 2026-05-04 19:59 | 35.60716 | -119.67226 | 37026 ft | 409 kts | 183° |
| 2026-05-04 19:59 | 35.57878 | -119.66892 | 36248 ft | 411 kts | 182° |
| 2026-05-04 20:00 | 35.55029 | -119.66505 | 35462 ft | 410 kts | 182° |
| 2026-05-04 20:00 | 35.52179 | -119.66122 | 34710 ft | 407 kts | 182° |
| 2026-05-04 20:00 | 35.49377 | -119.65709 | 33932 ft | 408 kts | 181° |
| 2026-05-04 20:00 | 35.46554 | -119.65112 | 33092 ft | 411 kts | 179° |
| 2026-05-04 20:01 | 35.43766 | -119.64354 | 32304 ft | 414 kts | 177° |
| 2026-05-04 20:01 | 35.40973 | -119.63545 | 31724 ft | 408 kts | 178° |
| 2026-05-04 20:01 | 35.38263 | -119.62759 | 31180 ft | 403 kts | 177° |
| 2026-05-04 20:01 | 35.35538 | -119.61970 | 30675 ft | 397 kts | 177° |
| 2026-05-04 20:02 | 35.32883 | -119.61199 | 30145 ft | 390 kts | 177° |
| 2026-05-04 20:02 | 35.30316 | -119.60447 | 29339 ft | 379 kts | 178° |
| 2026-05-04 20:02 | 35.27777 | -119.59718 | 27958 ft | 380 kts | 177° |
| 2026-05-04 20:02 | 35.25222 | -119.58937 | 26724 ft | 386 kts | 173° |
| 2026-05-04 20:03 | 35.22697 | -119.57722 | 26270 ft | 392 kts | 165° |
| 2026-05-04 20:03 | 35.20288 | -119.56068 | 25981 ft | 402 kts | 157° |
| 2026-05-04 20:03 | 35.18038 | -119.54067 | 25629 ft | 406 kts | 153° |
| 2026-05-04 20:03 | 35.15779 | -119.51942 | 25135 ft | 407 kts | 152° |
| 2026-05-04 20:04 | 35.13572 | -119.49844 | 24628 ft | 406 kts | 152° |
| 2026-05-04 20:04 | 35.11356 | -119.47735 | 24129 ft | 403 kts | 152° |
| 2026-05-04 20:04 | 35.09140 | -119.45641 | 23512 ft | 403 kts | 152° |
| 2026-05-04 20:04 | 35.06921 | -119.43547 | 22918 ft | 402 kts | 151° |
| 2026-05-04 20:05 | 35.04751 | -119.41511 | 22475 ft | 395 kts | 151° |
| 2026-05-04 20:05 | 35.02581 | -119.39471 | 21947 ft | 391 kts | 151° |
| 2026-05-04 20:05 | 35.00391 | -119.37528 | 21389 ft | 386 kts | 154° |
| 2026-05-04 20:05 | 34.98169 | -119.35813 | 20853 ft | 380 kts | 157° |
| 2026-05-04 20:06 | 34.95851 | -119.34230 | 20328 ft | 376 kts | 158° |
| 2026-05-04 20:06 | 34.93579 | -119.32703 | 19830 ft | 372 kts | 158° |
| 2026-05-04 20:06 | 34.91320 | -119.31184 | 19340 ft | 369 kts | 158° |
| 2026-05-04 20:06 | 34.89063 | -119.29667 | 18851 ft | 365 kts | 157° |
| 2026-05-04 20:07 | 34.86874 | -119.28188 | 18364 ft | 363 kts | 156° |
| 2026-05-04 20:07 | 34.84670 | -119.26717 | 17853 ft | 361 kts | 157° |
| 2026-05-04 20:07 | 34.82460 | -119.25256 | 17355 ft | 358 kts | 157° |
| 2026-05-04 20:07 | 34.80266 | -119.23816 | 16868 ft | 356 kts | 156° |
| 2026-05-04 20:08 | 34.78100 | -119.22394 | 16380 ft | 354 kts | 156° |
| 2026-05-04 20:08 | 34.75952 | -119.20953 | 15882 ft | 354 kts | 153° |
| 2026-05-04 20:08 | 34.74126 | -119.18937 | 15291 ft | 365 kts | 128° |
| 2026-05-04 20:08 | 34.72935 | -119.16190 | 14697 ft | 369 kts | 116° |
| 2026-05-04 20:09 | 34.71949 | -119.13310 | 14207 ft | 367 kts | 114° |
| 2026-05-04 20:09 | 34.70976 | -119.10463 | 13672 ft | 365 kts | 115° |
| 2026-05-04 20:09 | 34.69982 | -119.07672 | 13255 ft | 360 kts | 116° |
| 2026-05-04 20:09 | 34.68967 | -119.04920 | 12690 ft | 359 kts | 116° |
| 2026-05-04 20:10 | 34.67931 | -119.02193 | 12238 ft | 354 kts | 117° |
| 2026-05-04 20:10 | 34.66903 | -118.99524 | 11804 ft | 346 kts | 117° |
| 2026-05-04 20:10 | 34.65894 | -118.96928 | 11278 ft | 335 kts | 117° |
| 2026-05-04 20:10 | 34.64916 | -118.94421 | 10784 ft | 324 kts | 117° |
| 2026-05-04 20:11 | 34.63963 | -118.91985 | 10366 ft | 311 kts | 117° |
| 2026-05-04 20:11 | 34.63062 | -118.89683 | 10117 ft | 300 kts | 117° |
| 2026-05-04 20:11 | 34.62162 | -118.87399 | 10055 ft | 299 kts | 117° |
| 2026-05-04 20:11 | 34.61267 | -118.85126 | 9990 ft | 298 kts | 117° |
| 2026-05-04 20:12 | 34.60377 | -118.82866 | 9718 ft | 299 kts | 117° |
| 2026-05-04 20:12 | 34.59483 | -118.80593 | 9331 ft | 297 kts | 117° |
| 2026-05-04 20:12 | 34.58595 | -118.78339 | 8951 ft | 295 kts | 117° |
| 2026-05-04 20:12 | 34.57721 | -118.76120 | 8565 ft | 294 kts | 117° |
| 2026-05-04 20:13 | 34.56836 | -118.73874 | 8183 ft | 292 kts | 117° |
| 2026-05-04 20:13 | 34.55960 | -118.71661 | 7825 ft | 290 kts | 117° |
| 2026-05-04 20:13 | 34.55095 | -118.69468 | 7475 ft | 287 kts | 116° |
| 2026-05-04 20:13 | 34.54240 | -118.67302 | 7109 ft | 286 kts | 116° |
| 2026-05-04 20:14 | 34.53376 | -118.65121 | 6754 ft | 285 kts | 116° |
| 2026-05-04 20:14 | 34.52525 | -118.62970 | 6393 ft | 284 kts | 116° |
| 2026-05-04 20:14 | 34.51668 | -118.60809 | 6057 ft | 281 kts | 116° |
| 2026-05-04 20:14 | 34.50846 | -118.58725 | 5964 ft | 269 kts | 116° |
| 2026-05-04 20:15 | 34.50061 | -118.56745 | 5950 ft | 254 kts | 116° |
| 2026-05-04 20:15 | 34.49304 | -118.54836 | 5964 ft | 253 kts | 117° |
| 2026-05-04 20:15 | 34.48528 | -118.52894 | 5979 ft | 253 kts | 119° |
| 2026-05-04 20:15 | 34.47430 | -118.51299 | 5926 ft | 250 kts | 150° |
| 2026-05-04 20:16 | 34.45799 | -118.50728 | 5639 ft | 240 kts | 183° |
| 2026-05-04 20:16 | 34.44157 | -118.50892 | 5398 ft | 236 kts | 188° |
| 2026-05-04 20:16 | 34.42509 | -118.50997 | 5161 ft | 234 kts | 183° |
| 2026-05-04 20:16 | 34.40911 | -118.50930 | 4941 ft | 231 kts | 180° |
| 2026-05-04 20:17 | 34.39315 | -118.50785 | 4717 ft | 228 kts | 179° |
| 2026-05-04 20:17 | 34.37732 | -118.50625 | 4420 ft | 228 kts | 178° |
| 2026-05-04 20:17 | 34.36138 | -118.50466 | 4070 ft | 230 kts | 179° |
| 2026-05-04 20:17 | 34.34530 | -118.50313 | 3719 ft | 232 kts | 178° |
| 2026-05-04 20:18 | 34.32954 | -118.50162 | 3356 ft | 219 kts | 179° |
| 2026-05-04 20:18 | 34.31496 | -118.50023 | 3011 ft | 202 kts | 178° |
| 2026-05-04 20:18 | 34.30139 | -118.49896 | 2710 ft | 187 kts | 178° |
| 2026-05-04 20:18 | 34.28901 | -118.49782 | 2536 ft | 170 kts | 177° |
| 2026-05-04 20:19 | 34.27747 | -118.49676 | 2244 ft | 159 kts | 176° |
| 2026-05-04 20:19 | 34.26690 | -118.49578 | 1978 ft | 149 kts | 175° |
| 2026-05-04 20:19 | 34.25695 | -118.49486 | 1738 ft | 138 kts | 174° |
| 2026-05-04 20:19 | 34.24777 | -118.49399 | 1529 ft | 126 kts | 175° |
| 2026-05-04 20:20 | 34.23913 | -118.49316 | 1332 ft | 123 kts | 174° |
| 2026-05-04 20:20 | 34.23056 | -118.49232 | 1119 ft | 122 kts | 174° |
| 2026-05-04 20:20 | 34.22215 | -118.49144 | 955 ft | 122 kts | 175° |
| 2026-05-04 20:20 | 34.21370 | -118.49071 | 802 ft | 118 kts | 176° |
| 2026-05-04 20:21 | 34.20639 | -118.49005 | 775 ft | 85 kts | 175° |
| 2026-05-04 20:21 | 34.20206 | -118.48966 | 764 ft | 46 kts | 175° |
| 2026-05-04 20:21 | 34.19726 | -118.48935 | 754 ft | 23 kts | 214° |
| 2026-05-04 20:22 | 34.19638 | -118.49034 | 753 ft | 17 kts | 188° |
| 2026-05-04 20:22 | 34.19574 | -118.49072 | 752 ft | 0 kts | 219° |